Aeroporto :
LOGIN :

Iscrizione | Disclaimer

   EN    FR    IT 

 










Sommario :    VFR   VFR Marginale   IFR   IFR Intensivo   IFR Molto Intensivo
Visibilità : 
Base nubi : 
>= 8 km
>= 3000ft
5 / 8 km
1000 / 3000 ft
1500m / 5 km
500 / 1000 ft
800 / 1500m
200 / 500 ft
< 800m
< 200 ft
Simboli :   Temporali  Nebbia  Neve Forte  Precipitazioni Forti  Vento > 20 kt
SIGMETs :   Varie  Temporali  Ghiacco  Turbolenza  Onda orograficha  Ceneri Vulcaniche







- Altitudine del aeroporto : 885 ft
- Codice IATA : BAS
- Carte del aeroporto


LFSB - Bale-Mulhouse

ULTIMO METAR :
  • 171900Z 27007KT 9999 FEW030 04/M00 Q1014 TEMPO 4000 SHRA FEW025TCU

METARs OBSOLETI :
  • 171830Z 24009KT 220V280 9999 FEW026 04/M00 Q1013 TEMPO 4000 SHRA FEW025TCU
  • 171800Z 24010KT 9999 FEW026 04/00 Q1013 TEMPO 4000 SHRA FEW025TCU
  • 171730Z 26012KT 9999 FEW026 05/00 Q1012 TEMPO 4000 SHRA FEW025TCU
  • 171700Z 25013KT 9999 FEW026 SCT110 05/01 Q1012 NOSIG
  • 171630Z 23011KT 9999 VCSH FEW026 FEW030TCU SCT036 05/01 Q1012 NOSIG

TAF TAF LFSB
Valido dal 17 a 18 ore il 18 a 18 ore UTC


171700Z 1718/1818 25011KT 9999 FEW025 BKN050
TEMPO 1718/1801 27012G22KT 4000 SHRA FEW025TCU
PROB40
TEMPO 1721/1724 2000 SHRASN BKN014 SCT020TCU
PROB30
TEMPO 1723/1801 SHSN
BECMG 1806/1808 VRB03KT
BECMG 1811/1814 36005KT
Met : +33 3 89 90 31 11
Nessun NOTAM noto per questo aeroporto.



MetMap, La meteo Aeronautica in un colpo d'occhio ! - Copyright ORBIFLY Dicembre 2007 - Disclaimer

ORBIFLY MET'MAP TEAM :

Programmazione e sviluppo : Alexandra Zaïnal
Concezione e sviluppo : Baudouin d'Aumeries
Co-Programmazione e sviluppo : Marc-Olivier Méhu
Supporto tecnico e logistico : Manuel Goepfert
Aiuto per la traduzione : Arnaldo La Scala

Contatto : metmap@orbifly.com




FONTI E CREDITI :

   NOAA